Time;durP1;ratioP1;P1;durP2;ratioP2;P2;SDS_P1;SDS_P2;PMS_P1;PMS_P2;Temp;Humidity;BMP_temperature;BMP_pressure;BME280_temperature;BME280_humidity;BME280_pressure;Samples;Min_cycle;Max_cycle;Signal;HPM_P1;HPM_P2
2022/02/03 00:00:21;;;;;;;13.47;2.70;;;3.20;99.90;;;;;;5022766;28;20275;-44
2022/02/03 00:02:58;;;;;;;12.40;3.30;;;3.20;99.90;;;;;;5020636;28;20208;-46
2022/02/03 00:05:35;;;;;;;14.07;2.70;;;3.20;99.90;;;;;;5008764;28;20208;-44
2022/02/03 00:08:10;;;;;;;14.10;3.47;;;3.20;99.90;;;;;;5019148;28;20222;-43
2022/02/03 00:16:30;;;;;;;15.77;2.90;;;3.20;99.90;;;;;;5019618;28;20203;-46
2022/02/03 00:24:59;;;;;;;6.53;1.90;;;3.30;99.90;;;;;;5002184;28;20200;-45
2022/02/03 00:27:44;;;;;;;8.93;2.37;;;3.30;99.90;;;;;;5004583;28;20232;-45
2022/02/03 00:30:14;;;;;;;13.57;3.30;;;3.40;99.90;;;;;;5017256;28;20214;-46
2022/02/03 00:35:44;;;;;;;14.77;3.00;;;3.40;99.90;;;;;;5014259;28;20200;-44
2022/02/03 00:38:23;;;;;;;9.17;2.90;;;3.40;99.90;;;;;;5024875;28;20219;-46
2022/02/03 00:49:11;;;;;;;13.80;3.00;;;3.60;99.90;;;;;;5026849;28;20620;-46
2022/02/03 00:51:43;;;;;;;14.53;3.33;;;3.60;99.90;;;;;;5005885;28;20200;-44
2022/02/03 00:54:11;;;;;;;14.50;3.77;;;3.60;99.90;;;;;;5026294;28;20669;-47
2022/02/03 00:56:39;;;;;;;18.57;3.83;;;3.70;99.90;;;;;;5022686;28;20301;-47
2022/02/03 00:59:09;;;;;;;8.80;2.83;;;3.70;99.90;;;;;;5026575;28;20664;-45
2022/02/03 01:01:38;;;;;;;12.40;3.20;;;3.70;99.90;;;;;;5018801;28;20202;-45
2022/02/03 01:04:08;;;;;;;17.87;2.83;;;3.80;99.90;;;;;;5026449;28;20211;-44
2022/02/03 01:06:39;;;;;;;10.13;3.20;;;3.80;99.90;;;;;;5007745;28;20218;-44
2022/02/03 01:09:07;;;;;;;15.47;3.03;;;3.90;99.90;;;;;;5020716;28;20319;-44
2022/02/03 01:11:39;;;;;;;15.47;2.83;;;3.90;99.90;;;;;;5022151;28;20188;-47
2022/02/03 01:14:10;;;;;;;8.43;3.17;;;3.90;99.90;;;;;;5026321;28;20215;-43
2022/02/03 01:16:55;;;;;;;11.87;3.20;;;3.90;99.90;;;;;;5022353;28;20218;-44
2022/02/03 01:20:05;;;;;;;8.13;2.77;;;3.90;99.90;;;;;;5019755;28;20242;-44
2022/02/03 01:34:07;;;;;;;9.80;2.63;;;3.90;99.90;;;;;;5021431;28;20202;-45
2022/02/03 01:37:11;;;;;;;8.00;2.90;;;3.90;99.90;;;;;;5007465;28;20223;-44
2022/02/03 01:45:20;;;;;;;7.93;2.53;;;3.90;99.90;;;;;;5024805;28;20697;-48
2022/02/03 01:47:58;;;;;;;8.57;2.53;;;3.90;99.90;;;;;;5017948;28;20317;-47
2022/02/03 01:53:20;;;;;;;13.97;2.53;;;3.90;99.90;;;;;;5011456;28;20204;-46
2022/02/03 01:55:52;;;;;;;9.67;2.90;;;3.90;99.90;;;;;;5020584;28;20188;-47
2022/02/03 01:58:29;;;;;;;11.17;2.77;;;3.90;99.90;;;;;;5023932;28;20200;-46
2022/02/03 02:00:59;;;;;;;10.47;2.67;;;3.90;99.90;;;;;;5025257;28;20204;-44
2022/02/03 02:03:38;;;;;;;7.87;3.47;;;3.80;99.90;;;;;;5022116;28;20555;-45
2022/02/03 02:06:33;;;;;;;15.60;2.87;;;3.80;99.90;;;;;;5025207;28;20661;-44
2022/02/03 02:09:07;;;;;;;8.63;2.30;;;3.80;99.90;;;;;;5011131;28;20220;-46
2022/02/03 02:11:49;;;;;;;14.00;3.10;;;3.90;99.90;;;;;;5015103;28;20187;-45
2022/02/03 02:14:48;;;;;;;14.93;3.23;;;3.90;99.90;;;;;;5024334;28;20285;-46
2022/02/03 02:20:08;;;;;;;7.83;2.57;;;3.90;99.90;;;;;;5024206;28;20227;-48
2022/02/03 02:37:16;;;;;;;14.27;3.27;;;4.00;99.90;;;;;;5020690;28;20219;-44
2022/02/03 02:40:08;;;;;;;13.53;2.90;;;3.90;99.90;;;;;;5007884;28;20207;-46
2022/02/03 02:42:48;;;;;;;7.40;2.30;;;4.00;99.90;;;;;;5015067;28;20278;-46
2022/02/03 02:45:16;;;;;;;9.07;2.87;;;4.00;99.90;;;;;;5018052;28;20257;-47
2022/02/03 02:47:58;;;;;;;12.90;2.43;;;4.00;99.90;;;;;;5021925;28;20215;-47
2022/02/03 02:50:35;;;;;;;14.93;2.40;;;4.00;99.90;;;;;;5021518;28;20307;-45
2022/02/03 02:53:14;;;;;;;10.60;2.70;;;4.00;99.90;;;;;;5024219;28;20211;-45
2022/02/03 02:55:59;;;;;;;11.40;2.60;;;4.00;99.90;;;;;;5001025;28;20319;-44
2022/02/03 02:58:55;;;;;;;8.17;2.60;;;4.00;99.90;;;;;;5020802;28;20199;-46
2022/02/03 03:29:43;;;;;;;8.00;2.50;;;4.40;99.90;;;;;;5020532;28;20212;-49
2022/02/03 03:32:39;;;;;;;10.30;2.97;;;4.50;99.90;;;;;;5023937;28;20294;-44
2022/02/03 03:35:17;;;;;;;13.00;3.23;;;4.50;99.90;;;;;;5023979;28;20199;-44
2022/02/03 03:37:47;;;;;;;17.00;3.50;;;4.50;99.90;;;;;;5021145;28;20220;-47
2022/02/03 03:40:16;;;;;;;9.97;2.73;;;4.50;99.90;;;;;;5022893;28;20196;-45
2022/02/03 03:42:45;;;;;;;10.23;3.20;;;4.50;99.90;;;;;;5006878;28;20289;-46
2022/02/03 03:45:14;;;;;;;14.67;3.27;;;4.60;99.90;;;;;;5022817;28;20210;-48
2022/02/03 03:47:45;;;;;;;13.00;3.57;;;4.60;99.90;;;;;;5020318;28;20299;-45
2022/02/03 03:50:16;;;;;;;12.77;3.17;;;4.60;99.90;;;;;;5022894;28;20223;-44
2022/02/03 03:52:49;;;;;;;8.27;2.23;;;4.60;99.90;;;;;;5020759;28;20180;-46
2022/02/03 03:55:29;;;;;;;13.50;3.10;;;4.60;99.90;;;;;;5021677;28;20274;-48
2022/02/03 03:58:13;;;;;;;7.50;2.67;;;4.60;99.90;;;;;;5008970;28;20229;-44
2022/02/03 04:01:04;;;;;;;11.70;2.90;;;4.60;99.90;;;;;;5016364;28;20272;-49
2022/02/03 04:29:44;;;;;;;15.53;4.17;;;4.80;99.90;;;;;;5008689;28;20299;-45
2022/02/03 04:38:16;;;;;;;18.33;5.00;;;4.80;99.90;;;;;;5001337;28;20264;-44
2022/02/03 04:41:21;;;;;;;10.33;4.20;;;4.80;99.90;;;;;;5020599;28;20882;-46
2022/02/03 05:01:58;;;;;;;11.53;5.33;;;4.80;99.90;;;;;;4986501;28;20216;-47
2022/02/03 05:04:39;;;;;;;15.13;5.63;;;4.80;99.90;;;;;;5019127;28;20664;-44
2022/02/03 05:07:46;;;;;;;16.90;5.63;;;4.80;99.90;;;;;;5017733;28;20712;-45
2022/02/03 05:10:36;;;;;;;14.43;5.57;;;4.80;99.90;;;;;;5025519;28;20333;-46
2022/02/03 05:13:48;;;;;;;15.40;6.20;;;4.80;99.90;;;;;;5024992;28;20556;-48
2022/02/03 05:17:04;;;;;;;16.63;6.33;;;4.80;99.90;;;;;;5009967;28;20240;-46
2022/02/03 05:43:55;;;;;;;19.80;7.77;;;4.90;99.90;;;;;;5012766;28;20199;-46
2022/02/03 05:46:43;;;;;;;14.93;7.80;;;4.90;99.90;;;;;;5005442;28;20231;-50
2022/02/03 05:55:03;;;;;;;14.37;7.57;;;5.00;99.90;;;;;;4985035;28;20217;-46
2022/02/03 06:03:31;;;;;;;14.10;8.07;;;5.00;99.90;;;;;;5016830;28;20939;-45
2022/02/03 06:06:12;;;;;;;18.00;8.90;;;5.10;99.90;;;;;;5026545;28;20931;-46
2022/02/03 06:08:53;;;;;;;17.80;9.00;;;5.10;99.90;;;;;;5017179;28;20215;-46
2022/02/03 06:14:10;;;;;;;15.30;8.27;;;5.10;99.90;;;;;;5023785;28;20245;-47
2022/02/03 06:16:47;;;;;;;16.10;8.43;;;5.10;99.90;;;;;;5012963;28;20215;-45
2022/02/03 06:22:22;;;;;;;53.10;14.20;;;5.20;99.90;;;;;;5023869;28;20279;-49
2022/02/03 06:27:23;;;;;;;41.63;15.30;;;5.20;99.90;;;;;;5013689;28;20313;-46
2022/02/03 06:27:39;;;;;;;18.83;9.37;;;5.20;99.90;;;;;;5011093;28;20585;-47
2022/02/03 06:30:08;;;;;;;26.93;10.53;;;5.30;99.90;;;;;;5024119;28;20266;-47
2022/02/03 06:32:38;;;;;;;19.63;10.03;;;5.30;99.90;;;;;;4998898;28;20211;-45
2022/02/03 06:35:08;;;;;;;22.23;10.87;;;5.30;99.90;;;;;;5021531;28;20215;-50
2022/02/03 06:37:35;;;;;;;12.30;7.50;;;5.30;99.90;;;;;;5016323;28;20975;-45
2022/02/03 06:40:03;;;;;;;12.93;7.30;;;5.30;99.90;;;;;;5017797;28;20233;-46
2022/02/03 06:42:30;;;;;;;14.37;7.97;;;5.30;99.90;;;;;;5014993;28;20201;-47
2022/02/03 06:45:02;;;;;;;10.10;7.53;;;5.40;99.90;;;;;;5020055;28;20196;-46
2022/02/03 06:47:34;;;;;;;15.60;7.90;;;5.40;99.90;;;;;;5012293;28;20711;-43
2022/02/03 06:50:06;;;;;;;16.80;9.80;;;5.40;99.90;;;;;;5028654;28;20219;-44
2022/02/03 06:52:49;;;;;;;16.53;8.53;;;5.40;99.90;;;;;;5021236;28;20258;-46
2022/02/03 06:55:20;;;;;;;22.07;8.83;;;5.40;99.90;;;;;;5024026;28;20207;-44
2022/02/03 06:57:53;;;;;;;17.43;8.40;;;5.40;99.90;;;;;;5025489;28;20222;-44
2022/02/03 07:00:23;;;;;;;18.53;8.30;;;5.50;99.90;;;;;;5024166;28;20199;-45
2022/02/03 07:02:53;;;;;;;26.43;12.33;;;5.50;99.90;;;;;;5007555;28;21721;-44
2022/02/03 07:05:21;;;;;;;17.10;10.73;;;5.50;99.90;;;;;;5023828;28;20208;-47
2022/02/03 07:07:50;;;;;;;19.77;10.47;;;5.60;99.90;;;;;;5020680;28;20235;-44
2022/02/03 07:10:17;;;;;;;21.23;11.10;;;5.60;99.90;;;;;;5018860;28;20576;-44
2022/02/03 07:12:44;;;;;;;15.83;9.90;;;5.60;99.90;;;;;;5020096;28;20192;-44
2022/02/03 07:15:11;;;;;;;32.53;12.57;;;5.60;99.90;;;;;;5027320;28;20208;-44
2022/02/03 07:17:40;;;;;;;27.33;12.60;;;5.60;99.90;;;;;;5025379;28;20307;-44
2022/02/03 07:20:12;;;;;;;20.80;10.10;;;5.70;99.90;;;;;;5010089;28;20204;-44
2022/02/03 07:22:41;;;;;;;20.47;9.93;;;5.70;99.90;;;;;;5013527;28;20196;-44
2022/02/03 07:25:10;;;;;;;16.67;10.67;;;5.70;99.90;;;;;;5025003;28;20207;-43
2022/02/03 07:27:36;;;;;;;15.30;8.87;;;5.70;99.90;;;;;;5014464;28;20231;-46
2022/02/03 07:30:04;;;;;;;40.03;13.57;;;5.70;99.90;;;;;;5030294;28;20606;-45
2022/02/03 07:32:31;;;;;;;52.73;15.13;;;5.80;99.90;;;;;;5021248;28;20202;-45
2022/02/03 07:34:59;;;;;;;16.57;9.37;;;5.80;99.90;;;;;;5008411;28;20212;-46
2022/02/03 07:37:27;;;;;;;36.17;13.17;;;5.80;99.90;;;;;;5023323;28;20581;-49
2022/02/03 07:39:54;;;;;;;41.53;12.50;;;5.90;99.90;;;;;;5025341;28;20188;-43
2022/02/03 07:42:23;;;;;;;26.53;10.27;;;5.90;99.90;;;;;;5004917;28;20216;-44
2022/02/03 07:44:50;;;;;;;24.93;11.30;;;5.90;99.90;;;;;;5023040;28;20601;-44
2022/02/03 07:47:17;;;;;;;33.00;12.50;;;6.00;99.90;;;;;;5022836;28;20218;-44
2022/02/03 07:49:44;;;;;;;40.57;13.37;;;6.00;99.90;;;;;;5004309;28;20223;-45
2022/02/03 07:52:11;;;;;;;20.77;9.93;;;6.00;99.90;;;;;;5022289;28;20195;-44
2022/02/03 07:54:40;;;;;;;23.50;10.57;;;6.00;99.90;;;;;;5026021;28;20601;-46
2022/02/03 07:57:07;;;;;;;30.77;11.63;;;6.00;99.90;;;;;;5014019;28;20318;-46
2022/02/03 07:59:35;;;;;;;33.40;13.67;;;6.10;99.90;;;;;;5017399;28;20210;-45
2022/02/03 08:02:02;;;;;;;35.97;13.60;;;6.10;99.90;;;;;;5024942;28;20287;-44
2022/02/03 08:04:31;;;;;;;33.70;14.27;;;6.10;99.90;;;;;;5021923;28;20199;-44
2022/02/03 08:06:59;;;;;;;35.43;13.77;;;6.20;99.90;;;;;;5007592;28;20228;-44
2022/02/03 08:09:30;;;;;;;29.23;13.17;;;6.20;99.90;;;;;;5021576;28;20196;-45
2022/02/03 08:11:58;;;;;;;36.23;14.93;;;6.30;99.90;;;;;;5019027;28;20195;-50
2022/02/03 08:14:32;;;;;;;47.37;14.77;;;6.30;99.90;;;;;;5019605;28;20917;-44
2022/02/03 08:17:03;;;;;;;42.53;14.87;;;6.30;99.90;;;;;;5017729;28;20219;-46
2022/02/03 08:19:39;;;;;;;54.43;14.83;;;6.40;99.90;;;;;;5016677;28;20204;-43
2022/02/03 08:22:12;;;;;;;38.90;14.80;;;6.40;99.90;;;;;;5003957;28;20226;-46
2022/02/03 08:24:47;;;;;;;48.53;14.90;;;6.40;99.90;;;;;;5026772;28;20204;-43
2022/02/03 08:30:19;;;;;;;40.47;14.57;;;6.50;99.90;;;;;;5020506;28;20207;-44
2022/02/03 08:32:55;;;;;;;50.80;17.53;;;6.60;99.90;;;;;;5018644;28;20290;-48
2022/02/03 08:35:34;;;;;;;31.03;13.50;;;6.60;99.90;;;;;;5018468;28;22012;-45
2022/02/03 08:38:07;;;;;;;36.53;13.17;;;6.60;99.90;;;;;;5005390;28;20216;-49
2022/02/03 08:40:44;;;;;;;34.17;12.97;;;6.60;99.90;;;;;;5025607;28;20282;-44
2022/02/03 08:43:12;;;;;;;42.37;15.57;;;6.60;99.90;;;;;;5010869;28;20265;-44
2022/02/03 08:45:38;;;;;;;38.07;13.97;;;6.60;99.90;;;;;;5026739;28;20282;-44
2022/02/03 08:48:07;;;;;;;46.37;14.90;;;6.70;99.90;;;;;;5029698;28;20230;-46
2022/02/03 08:50:35;;;;;;;49.70;16.60;;;6.70;99.90;;;;;;5020872;28;20723;-44
2022/02/03 08:53:07;;;;;;;23.13;10.43;;;6.70;99.90;;;;;;5007830;28;20235;-45
2022/02/03 08:55:42;;;;;;;34.67;14.03;;;6.70;99.90;;;;;;5024531;28;20200;-46
2022/02/03 09:37:02;;;;;;;22.17;11.87;;;7.20;99.90;;;;;;5025510;28;20738;-43
2022/02/03 09:39:51;;;;;;;35.50;15.17;;;7.20;99.90;;;;;;5009572;28;20295;-45
2022/02/03 09:51:44;;;;;;;31.03;13.63;;;7.40;99.90;;;;;;5025040;28;20231;-45
2022/02/03 09:54:33;;;;;;;31.03;14.77;;;7.40;99.90;;;;;;5006190;28;20208;-45
2022/02/03 10:00:29;;;;;;;26.90;13.83;;;7.50;99.90;;;;;;4976312;28;20295;-43
2022/02/03 10:02:56;;;;;;;37.43;16.03;;;7.60;99.90;;;;;;4975984;28;20209;-44
2022/02/03 10:05:36;;;;;;;32.93;16.57;;;7.60;99.90;;;;;;5010336;28;20235;-44
2022/02/03 10:08:04;;;;;;;39.30;14.90;;;7.60;99.90;;;;;;5020221;28;20215;-43
2022/02/03 10:10:32;;;;;;;22.77;12.73;;;7.70;99.90;;;;;;5010004;28;20230;-44
2022/02/03 10:13:00;;;;;;;33.47;15.27;;;7.70;99.90;;;;;;5026935;28;20208;-47
2022/02/03 10:15:27;;;;;;;30.57;15.70;;;7.70;99.90;;;;;;5015723;28;20708;-43
2022/02/03 10:17:57;;;;;;;30.00;15.13;;;7.70;99.90;;;;;;5022644;28;20649;-42
2022/02/03 10:20:27;;;;;;;33.43;14.87;;;7.80;99.90;;;;;;5019858;28;20187;-45
2022/02/03 10:22:57;;;;;;;34.07;16.57;;;7.80;99.90;;;;;;5019404;28;20208;-42
2022/02/03 10:25:28;;;;;;;41.87;18.57;;;7.90;99.90;;;;;;5007393;28;20211;-46
2022/02/03 10:28:03;;;;;;;35.60;17.63;;;7.90;99.90;;;;;;5029792;28;20220;-43
2022/02/03 10:30:37;;;;;;;39.13;18.20;;;7.90;99.90;;;;;;5021731;28;20215;-46
2022/02/03 10:33:04;;;;;;;39.60;18.30;;;7.90;99.90;;;;;;5019451;28;20242;-47
2022/02/03 10:35:37;;;;;;;43.30;20.63;;;7.90;99.90;;;;;;5022122;28;20202;-44
2022/02/03 10:47:00;;;;;;;43.67;20.53;;;8.10;99.90;;;;;;5011247;28;20219;-43
2022/02/03 10:50:00;;;;;;;38.47;18.57;;;8.00;99.90;;;;;;5019644;28;20635;-43
2022/02/03 10:55:30;;;;;;;44.80;21.03;;;8.10;99.90;;;;;;5007979;28;20226;-46
2022/02/03 10:58:13;;;;;;;41.70;20.33;;;8.10;99.90;;;;;;5021927;28;20284;-43
2022/02/03 11:03:38;;;;;;;36.07;19.93;;;8.20;99.90;;;;;;5011540;28;20223;-45
2022/02/03 11:06:18;;;;;;;39.40;19.57;;;8.10;99.90;;;;;;5022383;28;20199;-43
2022/02/03 11:08:52;;;;;;;43.37;22.30;;;8.20;99.90;;;;;;5015548;28;20200;-43
2022/02/03 11:11:23;;;;;;;36.40;19.73;;;8.20;99.90;;;;;;5016222;28;20224;-43
2022/02/03 11:13:50;;;;;;;38.67;19.63;;;8.20;99.90;;;;;;5019583;28;20211;-42
2022/02/03 11:16:19;;;;;;;40.37;20.67;;;8.20;99.90;;;;;;5023610;28;20266;-42
2022/02/03 11:18:47;;;;;;;41.90;20.10;;;8.20;99.90;;;;;;5017819;28;20203;-48
2022/02/03 11:21:14;;;;;;;43.03;21.33;;;8.20;99.90;;;;;;5021003;28;20191;-45
2022/02/03 11:23:47;;;;;;;65.50;24.53;;;8.20;99.90;;;;;;5008773;28;20220;-42
2022/02/03 11:26:24;;;;;;;49.50;21.50;;;8.20;99.90;;;;;;5026897;28;20601;-43
2022/02/03 11:43:25;;;;;;;29.47;15.63;;;8.20;99.90;;;;;;5022983;28;20234;-44
2022/02/03 11:46:21;;;;;;;26.83;15.57;;;8.20;99.90;;;;;;5013845;28;20215;-44
2022/02/03 11:52:05;;;;;;;31.23;16.03;;;8.20;99.90;;;;;;5016985;28;20212;-46
2022/02/03 12:03:08;;;;;;;39.60;19.07;;;8.30;99.90;;;;;;5020332;28;20211;-47
2022/02/03 12:06:12;;;;;;;28.90;16.60;;;8.20;99.90;;;;;;5019185;28;20215;-44
2022/02/03 12:12:04;;;;;;;23.33;14.00;;;8.20;99.90;;;;;;5015541;28;20263;-42
2022/02/03 12:15:03;;;;;;;29.80;15.50;;;8.20;99.90;;;;;;5022041;28;20195;-43
2022/02/03 12:17:47;;;;;;;25.17;13.47;;;8.10;99.90;;;;;;5020455;28;20216;-43
2022/02/03 12:20:25;;;;;;;23.90;15.03;;;8.20;99.90;;;;;;5022747;28;20211;-43
2022/02/03 12:23:09;;;;;;;32.17;15.33;;;8.10;99.90;;;;;;5008233;28;20202;-43
2022/02/03 12:25:47;;;;;;;28.07;15.70;;;8.10;99.90;;;;;;5026458;28;20196;-45
2022/02/03 12:28:32;;;;;;;25.37;14.63;;;8.10;99.90;;;;;;5019952;28;20767;-44
2022/02/03 12:39:39;;;;;;;28.27;14.60;;;8.00;99.90;;;;;;5019422;28;20207;-44
2022/02/03 12:42:17;;;;;;;26.87;16.27;;;8.00;99.90;;;;;;5022263;28;20265;-46
2022/02/03 12:44:46;;;;;;;23.97;13.90;;;8.10;99.90;;;;;;5019538;28;20290;-43
2022/02/03 12:47:13;;;;;;;23.60;14.17;;;8.00;99.90;;;;;;5008924;28;20676;-46
2022/02/03 12:49:40;;;;;;;24.13;15.00;;;8.00;99.90;;;;;;5019523;28;20192;-43
2022/02/03 12:52:24;;;;;;;31.73;15.40;;;8.00;99.90;;;;;;5025726;28;20223;-43
2022/02/03 12:54:52;;;;;;;31.20;15.77;;;8.00;99.90;;;;;;5015543;28;20196;-43
2022/02/03 12:57:33;;;;;;;30.77;17.13;;;8.00;99.90;;;;;;5021924;28;20313;-44
2022/02/03 13:00:16;;;;;;;28.27;16.37;;;8.00;99.90;;;;;;5015050;28;20270;-43
2022/02/03 13:02:52;;;;;;;30.43;16.57;;;8.00;99.90;;;;;;5003721;28;20652;-47
2022/02/03 13:05:24;;;;;;;31.00;16.60;;;8.00;99.90;;;;;;5018904;28;20195;-46
2022/02/03 13:07:53;;;;;;;29.57;15.37;;;7.90;99.90;;;;;;5017780;28;21096;-46
2022/02/03 13:10:24;;;;;;;25.70;14.07;;;7.90;99.90;;;;;;5016704;28;20227;-43
2022/02/03 13:13:00;;;;;;;27.30;15.60;;;7.90;99.90;;;;;;5011093;28;21165;-43
2022/02/03 13:15:32;;;;;;;26.73;15.67;;;7.90;99.90;;;;;;5003128;28;20917;-43
2022/02/03 13:18:01;;;;;;;29.67;16.33;;;7.90;99.90;;;;;;5001912;28;20731;-44
2022/02/03 13:20:37;;;;;;;30.67;16.30;;;7.90;99.90;;;;;;5005435;28;20278;-44
2022/02/03 13:23:08;;;;;;;37.40;17.03;;;7.90;99.90;;;;;;5019109;28;20651;-44
2022/02/03 13:25:47;;;;;;;29.50;16.43;;;7.90;99.90;;;;;;5013252;28;20287;-43
2022/02/03 13:28:18;;;;;;;31.20;15.90;;;7.90;99.90;;;;;;5013089;28;20220;-44
2022/02/03 13:30:50;;;;;;;37.63;16.03;;;7.90;99.90;;;;;;5020026;28;20232;-46
2022/02/03 13:33:23;;;;;;;24.73;14.00;;;7.90;99.90;;;;;;4999119;28;20285;-43
2022/02/03 13:35:55;;;;;;;28.77;15.80;;;7.90;99.90;;;;;;5007997;28;20204;-44
2022/02/03 13:38:37;;;;;;;27.03;15.10;;;7.90;99.90;;;;;;5006747;28;20211;-47
2022/02/03 13:41:11;;;;;;;25.67;15.73;;;7.90;99.90;;;;;;5012525;28;20266;-45
2022/02/03 13:43:39;;;;;;;24.73;15.07;;;7.90;99.90;;;;;;5012564;28;20270;-44
2022/02/03 13:46:07;;;;;;;31.47;16.97;;;7.90;99.90;;;;;;5023140;28;20219;-50
2022/02/03 13:48:37;;;;;;;30.10;15.67;;;7.90;99.90;;;;;;5006761;28;20215;-48
2022/02/03 13:51:07;;;;;;;27.10;15.80;;;7.90;99.90;;;;;;5023966;28;20224;-46
2022/02/03 13:53:38;;;;;;;33.17;16.43;;;7.90;99.90;;;;;;5017406;28;20270;-44
2022/02/03 14:18:59;;;;;;;25.43;14.87;;;7.80;99.90;;;;;;4997788;28;20212;-46
2022/02/03 14:21:29;;;;;;;26.17;14.73;;;7.70;99.90;;;;;;5008434;28;20232;-44
2022/02/03 14:26:59;;;;;;;24.20;13.23;;;7.70;99.90;;;;;;5019573;28;20222;-43
2022/02/03 14:29:30;;;;;;;27.77;14.97;;;7.70;99.90;;;;;;5024366;28;20199;-46
2022/02/03 14:32:01;;;;;;;23.97;14.57;;;7.70;99.90;;;;;;5012093;28;20224;-43
2022/02/03 14:34:31;;;;;;;30.23;14.70;;;7.70;99.90;;;;;;5010821;28;20208;-43
2022/02/03 14:37:07;;;;;;;35.20;15.37;;;7.70;99.90;;;;;;5011269;28;20230;-43
2022/02/03 14:39:48;;;;;;;32.17;15.30;;;7.70;99.90;;;;;;5012836;28;20286;-45
2022/02/03 14:42:16;;;;;;;25.27;11.80;;;7.70;99.90;;;;;;5013418;28;20910;-44
2022/02/03 14:44:44;;;;;;;22.40;12.50;;;7.70;99.90;;;;;;5028616;28;20257;-43
2022/02/03 14:47:12;;;;;;;34.00;15.63;;;7.70;99.90;;;;;;5019308;28;20227;-43
2022/02/03 14:49:42;;;;;;;25.97;14.27;;;7.70;99.90;;;;;;5024964;28;20199;-46
2022/02/03 14:52:13;;;;;;;25.27;13.40;;;7.70;99.90;;;;;;5010989;28;20236;-42
2022/02/03 15:00:14;;;;;;;19.37;12.10;;;7.70;99.90;;;;;;5015934;28;20202;-42
2022/02/03 15:02:41;;;;;;;23.30;12.20;;;7.70;99.90;;;;;;5023856;28;20196;-45
2022/02/03 15:05:12;;;;;;;17.60;11.33;;;7.70;99.90;;;;;;5015558;28;20211;-43
2022/02/03 15:07:42;;;;;;;19.77;11.93;;;7.70;99.90;;;;;;5013276;28;20217;-43
2022/02/03 15:10:30;;;;;;;34.37;16.53;;;7.70;99.90;;;;;;5010554;28;20809;-43
2022/02/03 15:13:03;;;;;;;16.57;10.53;;;7.60;99.90;;;;;;5005601;28;20286;-46
2022/02/03 15:15:31;;;;;;;26.30;14.00;;;7.60;99.90;;;;;;5020103;28;20211;-43
2022/02/03 15:17:57;;;;;;;31.90;14.97;;;7.60;99.90;;;;;;5011629;28;20354;-43
2022/02/03 15:20:25;;;;;;;18.93;12.20;;;7.70;99.90;;;;;;5020384;28;20199;-44
2022/02/03 15:22:52;;;;;;;19.40;11.53;;;7.60;99.90;;;;;;5007145;28;20690;-44
2022/02/03 15:25:19;;;;;;;21.97;11.93;;;7.60;99.90;;;;;;5023303;28;20302;-44
2022/02/03 15:27:46;;;;;;;22.83;13.27;;;7.60;99.90;;;;;;5012040;28;20238;-43
2022/02/03 15:30:14;;;;;;;20.83;13.07;;;7.60;99.90;;;;;;5017504;28;20207;-42
2022/02/03 15:32:45;;;;;;;19.90;12.07;;;7.60;99.90;;;;;;5013601;28;20217;-45
2022/02/03 15:35:19;;;;;;;19.13;11.23;;;7.60;99.90;;;;;;5011671;28;20196;-46
2022/02/03 15:37:47;;;;;;;28.70;15.47;;;7.60;99.90;;;;;;5003223;28;20235;-44
2022/02/03 15:40:19;;;;;;;19.43;11.87;;;7.60;99.90;;;;;;5020212;28;20204;-43
2022/02/03 15:42:54;;;;;;;21.70;12.30;;;7.60;99.90;;;;;;5016008;28;20258;-43
2022/02/03 15:45:21;;;;;;;30.73;14.23;;;7.50;99.90;;;;;;5008827;28;20223;-44
2022/02/03 15:47:53;;;;;;;29.00;13.67;;;7.60;99.90;;;;;;5012300;28;20222;-46
2022/02/03 15:50:54;;;;;;;24.83;12.10;;;7.50;99.90;;;;;;5014803;28;20207;-48
2022/02/03 16:18:06;;;;;;;28.97;12.10;;;7.40;99.90;;;;;;5016995;28;20235;-49
2022/02/03 16:20:39;;;;;;;37.10;13.73;;;7.40;99.90;;;;;;5008666;28;20289;-46
2022/02/03 16:23:22;;;;;;;30.93;13.43;;;7.40;99.90;;;;;;5018741;28;20200;-44
2022/02/03 16:43:20;;;;;;;25.77;12.07;;;7.30;99.90;;;;;;5000119;28;21933;-44
2022/02/03 16:51:12;;;;;;;25.67;12.50;;;7.30;99.90;;;;;;5014001;28;20552;-47
2022/02/03 16:53:41;;;;;;;22.30;11.43;;;7.30;99.90;;;;;;5016741;28;21024;-44
2022/02/03 16:56:11;;;;;;;34.50;13.80;;;7.30;99.90;;;;;;5006077;28;20592;-44
2022/02/03 16:58:40;;;;;;;23.00;11.23;;;7.30;99.90;;;;;;5014740;28;20287;-44
2022/02/03 17:01:07;;;;;;;22.83;12.07;;;7.30;99.90;;;;;;5013675;28;20208;-44
2022/02/03 17:03:34;;;;;;;23.67;12.47;;;7.30;99.90;;;;;;5015905;28;20192;-44
2022/02/03 17:06:00;;;;;;;17.30;11.97;;;7.30;99.90;;;;;;5023104;28;20251;-45
2022/02/03 17:08:27;;;;;;;26.20;12.17;;;7.30;99.90;;;;;;5021401;28;20222;-43
2022/02/03 17:10:55;;;;;;;45.27;15.47;;;7.20;99.90;;;;;;5022223;28;20669;-44
2022/02/03 17:13:21;;;;;;;25.03;13.90;;;7.20;99.90;;;;;;4996536;28;20813;-43
2022/02/03 17:15:48;;;;;;;26.57;12.83;;;7.20;99.90;;;;;;5017820;28;20211;-43
2022/02/03 17:18:16;;;;;;;33.10;14.37;;;7.20;99.90;;;;;;5010924;28;20235;-46
2022/02/03 17:20:43;;;;;;;41.67;16.50;;;7.20;99.90;;;;;;5018078;28;20197;-45
2022/02/03 17:23:15;;;;;;;27.73;15.43;;;7.20;99.90;;;;;;5017448;28;20246;-47
2022/02/03 17:25:48;;;;;;;18.67;11.90;;;7.20;99.90;;;;;;5011342;28;20354;-44
2022/02/03 17:28:21;;;;;;;29.57;14.13;;;7.20;99.90;;;;;;5002433;28;20704;-43
2022/02/03 17:30:53;;;;;;;29.47;14.10;;;7.20;99.90;;;;;;5013484;28;20227;-44
2022/02/03 17:53:48;;;;;;;39.60;14.80;;;7.20;99.90;;;;;;5018912;28;20298;-46
2022/02/03 18:07:29;;;;;;;22.83;13.20;;;7.20;99.90;;;;;;5017390;28;20968;-41
2022/02/03 18:10:01;;;;;;;27.20;15.07;;;7.20;99.90;;;;;;5025174;28;20199;-42
2022/02/03 18:32:31;;;;;;;29.93;13.93;;;7.20;99.90;;;;;;5009142;28;20560;-51
2022/02/03 18:35:17;;;;;;;36.57;17.73;;;7.10;99.90;;;;;;5006344;28;20226;-45
2022/02/03 18:46:56;;;;;;;28.00;16.17;;;7.10;99.90;;;;;;5000614;28;20199;-44
2022/02/03 18:52:07;;;;;;;33.83;16.43;;;7.10;99.90;;;;;;5010554;28;20254;-41
2022/02/03 18:54:49;;;;;;;26.83;14.57;;;7.10;99.90;;;;;;5022829;28;20210;-42
2022/02/03 18:57:29;;;;;;;29.13;14.37;;;7.10;99.90;;;;;;5018201;28;20234;-42
2022/02/03 19:00:29;;;;;;;26.70;15.23;;;7.10;99.90;;;;;;4999530;28;20208;-46
2022/02/03 19:28:32;;;;;;;29.40;18.23;;;7.10;99.90;;;;;;5009905;28;20595;-41
2022/02/03 20:01:42;;;;;;;24.30;15.63;;;7.10;99.90;;;;;;5000073;28;20220;-46
2022/02/03 20:07:10;;;;;;;27.50;16.47;;;7.10;99.90;;;;;;4990908;28;20339;-44
2022/02/03 20:09:58;;;;;;;25.23;15.57;;;7.10;99.90;;;;;;5014441;28;20216;-44
2022/02/03 20:12:25;;;;;;;22.83;15.37;;;7.00;99.90;;;;;;5018302;28;20313;-51
2022/02/03 20:14:53;;;;;;;30.37;16.27;;;7.00;99.90;;;;;;5016044;28;20204;-47
2022/02/03 20:17:21;;;;;;;31.77;16.50;;;7.00;99.90;;;;;;4997249;28;20235;-48
2022/02/03 20:19:48;;;;;;;21.77;14.97;;;7.00;99.90;;;;;;5009014;28;20676;-49
2022/02/03 20:22:16;;;;;;;26.37;16.23;;;7.00;99.90;;;;;;5015411;28;20772;-45
2022/02/03 20:24:43;;;;;;;26.30;15.87;;;7.00;99.90;;;;;;5007958;28;20226;-45
2022/02/03 20:27:11;;;;;;;29.90;17.23;;;7.00;99.90;;;;;;5012458;28;20452;-44
2022/02/03 20:29:38;;;;;;;32.40;16.60;;;7.00;99.90;;;;;;5015259;28;20235;-47
2022/02/03 20:32:06;;;;;;;45.83;19.67;;;7.00;99.90;;;;;;5011861;28;20206;-47
2022/02/03 20:34:34;;;;;;;25.93;15.03;;;7.00;99.90;;;;;;5001894;28;20738;-46
2022/02/03 20:37:00;;;;;;;28.00;17.33;;;7.00;99.90;;;;;;5008590;28;20220;-45
2022/02/03 20:39:27;;;;;;;25.47;17.30;;;7.00;99.90;;;;;;5013003;28;20203;-45
2022/02/03 20:41:54;;;;;;;24.20;15.37;;;7.00;99.90;;;;;;5010814;28;21185;-47
2022/02/03 20:44:21;;;;;;;29.93;16.57;;;7.00;99.90;;;;;;5015099;28;20204;-48
2022/02/03 20:47:08;;;;;;;31.93;18.07;;;7.00;99.90;;;;;;5023537;28;20998;-48
2022/02/03 20:49:35;;;;;;;36.30;17.77;;;7.00;99.90;;;;;;5010865;28;20215;-47
2022/02/03 20:52:02;;;;;;;29.53;18.53;;;7.00;99.90;;;;;;5021315;28;20297;-46
2022/02/03 20:54:29;;;;;;;30.93;18.33;;;7.00;99.90;;;;;;5011303;28;20220;-50
2022/02/03 20:56:57;;;;;;;26.47;17.00;;;7.00;99.90;;;;;;5017380;28;20212;-53
2022/02/03 20:59:28;;;;;;;42.10;17.77;;;7.00;99.90;;;;;;5015789;28;20200;-46
2022/02/03 21:01:59;;;;;;;26.70;17.20;;;7.00;99.90;;;;;;5017211;28;20342;-46
2022/02/03 21:04:37;;;;;;;30.63;17.93;;;7.00;99.90;;;;;;5010930;28;20254;-41
2022/02/03 21:07:09;;;;;;;30.40;17.63;;;7.00;99.90;;;;;;5017113;28;20708;-47
2022/02/03 21:09:36;;;;;;;22.37;14.53;;;7.00;99.90;;;;;;5029980;28;20198;-44
2022/02/03 21:12:04;;;;;;;28.27;18.40;;;7.00;99.90;;;;;;5018930;28;20991;-44
2022/02/03 21:14:32;;;;;;;30.20;18.60;;;7.00;99.90;;;;;;5028630;28;20226;-45
2022/02/03 21:17:00;;;;;;;31.57;18.83;;;7.00;99.90;;;;;;5023227;28;20303;-42
2022/02/03 21:19:28;;;;;;;25.27;17.73;;;7.00;99.90;;;;;;5026034;28;20200;-45
2022/02/03 21:21:55;;;;;;;25.60;17.67;;;7.00;99.90;;;;;;5009316;28;20200;-45